Cannon Air Force Base
KCVS : now visible

Airfield :











YOU CAN JOIN US ON...

 
LOGIN :

Register | Disclaimer

   EN    FR    IT 

 









Legend :    VFR   Marginal VFR   IFR   Intensive IFR   Very Intensive IFR
Visi :
Ceiling :
>= 8 km
>= 3000ft
5 to 8 km
1000 to 3000 ft
1500m to 5 km
500 to 1000 ft
800 to 1500m
200 to 500 ft
< 800m
< 200 ft
Symbols :   Thunderstorms  Fog  Heavy snow  Heavy precipitations  Wind > 20 kt






- Airport Elevation : 4295 ft


KCVS - Cannon Air Force Base

CURRENT METAR :
  • 071555Z AUTO 07008KT 10SM SCT060 BKN080 OVC095 15/13 A3042 RMK AO2 SLP271 T01540127 $

EXPIRED METARs :
  • 071455Z AUTO 06006KT 10SM OVC060 15/14 A3041 RMK AO2 SLP267 60000 T01470141 53014 $
  • 071355Z AUTO 03005KT 10SM OVC100 14/14 A3038 RMK AO2 SLP257 T01390137 $

TAF AMD TAF KCVS
Valid from the 07 at 08:00 until the 08 at 08:00 UTC


070800Z 0708/0808 04008KT 9999 OVC060 QNH3033INS
BECMG 0714/0715 05012KT 8000 -SHRA BKN045 OVC060 QNH3034INS TX18/0721Z TN13/0712Z LAST NO AMDS AFT 0708 NEXT 0918
KZAB FIR / North America



MET'MAP, your aeronautical weather chart ! - Copyright ORBIFLY December 2007 - Disclaimer

ORBIFLY MET'MAP TEAM :

Programming & Development : Alexandra Zaïnal
Original concept : Baudouin d'Aumeries
Technical & hardware support : Manuel Goepfert
Assistance : Marc-Olivier Méhu




SOURCES & CREDITS :

   NOAA       Earth
Advisory